sensor_id;sensor_type;location;lat;lon;timestamp;P1;durP1;ratioP1;P2;durP2;ratioP2
15192;SDS011;7697;51.630;7.484;2024-02-26T00:04:54;2.30;;;1.90;;
15192;SDS011;7697;51.630;7.484;2024-02-26T00:09:56;3.33;;;2.30;;
15192;SDS011;7697;51.630;7.484;2024-02-26T00:14:58;3.20;;;2.10;;
15192;SDS011;7697;51.630;7.484;2024-02-26T00:20:02;4.53;;;1.90;;
15192;SDS011;7697;51.630;7.484;2024-02-26T00:25:08;2.27;;;2.00;;
15192;SDS011;7697;51.630;7.484;2024-02-26T00:30:12;4.03;;;2.20;;
15192;SDS011;7697;51.630;7.484;2024-02-26T00:35:15;3.13;;;2.00;;
15192;SDS011;7697;51.630;7.484;2024-02-26T00:40:20;2.53;;;1.97;;
15192;SDS011;7697;51.630;7.484;2024-02-26T00:45:22;2.73;;;2.10;;
15192;SDS011;7697;51.630;7.484;2024-02-26T00:50:25;1.93;;;1.77;;
15192;SDS011;7697;51.630;7.484;2024-02-26T00:55:27;2.47;;;1.80;;
15192;SDS011;7697;51.630;7.484;2024-02-26T01:00:28;3.10;;;1.90;;
15192;SDS011;7697;51.630;7.484;2024-02-26T01:05:31;2.10;;;1.90;;
15192;SDS011;7697;51.630;7.484;2024-02-26T01:10:33;3.00;;;1.90;;
15192;SDS011;7697;51.630;7.484;2024-02-26T01:15:35;2.30;;;1.53;;
15192;SDS011;7697;51.630;7.484;2024-02-26T01:20:38;3.40;;;1.70;;
15192;SDS011;7697;51.630;7.484;2024-02-26T01:25:40;2.37;;;1.90;;
15192;SDS011;7697;51.630;7.484;2024-02-26T01:30:43;2.63;;;1.90;;
15192;SDS011;7697;51.630;7.484;2024-02-26T01:35:46;2.20;;;1.77;;
15192;SDS011;7697;51.630;7.484;2024-02-26T01:40:47;3.13;;;2.07;;
15192;SDS011;7697;51.630;7.484;2024-02-26T01:45:49;2.67;;;1.60;;
15192;SDS011;7697;51.630;7.484;2024-02-26T01:50:52;2.03;;;1.50;;
15192;SDS011;7697;51.630;7.484;2024-02-26T01:55:54;3.03;;;1.80;;
15192;SDS011;7697;51.630;7.484;2024-02-26T02:00:56;1.73;;;1.50;;
15192;SDS011;7697;51.630;7.484;2024-02-26T02:05:59;1.83;;;1.50;;
15192;SDS011;7697;51.630;7.484;2024-02-26T02:11:01;1.60;;;1.50;;
15192;SDS011;7697;51.630;7.484;2024-02-26T02:16:03;2.03;;;1.50;;
15192;SDS011;7697;51.630;7.484;2024-02-26T02:21:07;2.10;;;1.73;;
15192;SDS011;7697;51.630;7.484;2024-02-26T02:26:09;2.60;;;1.80;;
15192;SDS011;7697;51.630;7.484;2024-02-26T02:31:11;2.33;;;1.80;;
15192;SDS011;7697;51.630;7.484;2024-02-26T02:36:14;2.33;;;1.60;;
15192;SDS011;7697;51.630;7.484;2024-02-26T02:41:16;1.70;;;1.50;;
15192;SDS011;7697;51.630;7.484;2024-02-26T02:46:18;2.57;;;1.60;;
15192;SDS011;7697;51.630;7.484;2024-02-26T02:51:21;1.50;;;1.40;;
15192;SDS011;7697;51.630;7.484;2024-02-26T02:56:23;2.53;;;1.63;;
15192;SDS011;7697;51.630;7.484;2024-02-26T03:01:25;1.80;;;1.40;;
15192;SDS011;7697;51.630;7.484;2024-02-26T03:06:28;1.70;;;1.40;;
15192;SDS011;7697;51.630;7.484;2024-02-26T03:11:30;2.37;;;1.80;;
15192;SDS011;7697;51.630;7.484;2024-02-26T03:16:31;2.77;;;1.80;;
15192;SDS011;7697;51.630;7.484;2024-02-26T03:21:35;2.43;;;1.93;;
15192;SDS011;7697;51.630;7.484;2024-02-26T03:26:37;2.20;;;1.70;;
15192;SDS011;7697;51.630;7.484;2024-02-26T03:31:38;2.50;;;2.00;;
15192;SDS011;7697;51.630;7.484;2024-02-26T03:36:41;2.10;;;1.60;;
15192;SDS011;7697;51.630;7.484;2024-02-26T03:41:43;1.70;;;1.60;;
15192;SDS011;7697;51.630;7.484;2024-02-26T03:46:45;2.63;;;1.60;;
15192;SDS011;7697;51.630;7.484;2024-02-26T03:51:48;1.63;;;1.47;;
15192;SDS011;7697;51.630;7.484;2024-02-26T03:56:50;1.90;;;1.37;;
15192;SDS011;7697;51.630;7.484;2024-02-26T04:01:52;1.87;;;1.40;;
15192;SDS011;7697;51.630;7.484;2024-02-26T04:06:55;1.27;;;1.17;;
15192;SDS011;7697;51.630;7.484;2024-02-26T04:11:56;1.67;;;1.40;;
15192;SDS011;7697;51.630;7.484;2024-02-26T04:16:58;1.80;;;1.40;;
15192;SDS011;7697;51.630;7.484;2024-02-26T04:22:02;1.50;;;1.40;;
15192;SDS011;7697;51.630;7.484;2024-02-26T04:27:04;1.60;;;1.50;;
15192;SDS011;7697;51.630;7.484;2024-02-26T04:32:06;2.00;;;1.60;;
15192;SDS011;7697;51.630;7.484;2024-02-26T04:37:09;2.33;;;1.97;;
15192;SDS011;7697;51.630;7.484;2024-02-26T04:42:10;1.63;;;1.50;;
15192;SDS011;7697;51.630;7.484;2024-02-26T04:47:12;1.87;;;1.60;;
15192;SDS011;7697;51.630;7.484;2024-02-26T04:52:16;1.70;;;1.50;;
15192;SDS011;7697;51.630;7.484;2024-02-26T04:57:17;2.00;;;1.57;;
15192;SDS011;7697;51.630;7.484;2024-02-26T05:02:19;1.70;;;1.60;;
15192;SDS011;7697;51.630;7.484;2024-02-26T05:07:22;2.00;;;1.70;;
15192;SDS011;7697;51.630;7.484;2024-02-26T05:12:24;1.70;;;1.60;;
15192;SDS011;7697;51.630;7.484;2024-02-26T05:17:25;2.30;;;1.93;;
15192;SDS011;7697;51.630;7.484;2024-02-26T05:22:29;3.00;;;1.60;;
15192;SDS011;7697;51.630;7.484;2024-02-26T05:27:30;2.13;;;1.70;;
15192;SDS011;7697;51.630;7.484;2024-02-26T05:32:32;1.63;;;1.40;;
15192;SDS011;7697;51.630;7.484;2024-02-26T05:37:35;3.40;;;1.97;;
15192;SDS011;7697;51.630;7.484;2024-02-26T05:42:37;2.00;;;1.50;;
15192;SDS011;7697;51.630;7.484;2024-02-26T05:47:39;2.43;;;1.70;;
15192;SDS011;7697;51.630;7.484;2024-02-26T05:52:44;2.00;;;1.60;;
15192;SDS011;7697;51.630;7.484;2024-02-26T05:57:45;2.00;;;1.80;;
15192;SDS011;7697;51.630;7.484;2024-02-26T06:02:49;2.20;;;1.77;;
15192;SDS011;7697;51.630;7.484;2024-02-26T06:07:53;2.33;;;1.80;;
15192;SDS011;7697;51.630;7.484;2024-02-26T06:12:54;2.10;;;1.90;;
15192;SDS011;7697;51.630;7.484;2024-02-26T06:17:56;2.03;;;1.83;;
15192;SDS011;7697;51.630;7.484;2024-02-26T06:22:59;3.17;;;1.80;;
15192;SDS011;7697;51.630;7.484;2024-02-26T06:28:01;2.13;;;1.90;;
15192;SDS011;7697;51.630;7.484;2024-02-26T06:33:03;3.37;;;1.80;;
15192;SDS011;7697;51.630;7.484;2024-02-26T06:38:06;2.20;;;2.00;;
15192;SDS011;7697;51.630;7.484;2024-02-26T06:43:09;2.47;;;1.90;;
15192;SDS011;7697;51.630;7.484;2024-02-26T06:48:11;2.40;;;1.87;;
15192;SDS011;7697;51.630;7.484;2024-02-26T06:53:14;2.10;;;1.73;;
15192;SDS011;7697;51.630;7.484;2024-02-26T06:58:16;1.97;;;1.77;;
15192;SDS011;7697;51.630;7.484;2024-02-26T07:03:18;1.90;;;1.70;;
15192;SDS011;7697;51.630;7.484;2024-02-26T07:08:21;3.17;;;1.67;;
15192;SDS011;7697;51.630;7.484;2024-02-26T07:13:22;2.47;;;1.90;;
15192;SDS011;7697;51.630;7.484;2024-02-26T07:18:24;2.13;;;1.93;;
15192;SDS011;7697;51.630;7.484;2024-02-26T07:23:27;2.77;;;1.87;;
15192;SDS011;7697;51.630;7.484;2024-02-26T07:28:29;2.50;;;1.67;;
15192;SDS011;7697;51.630;7.484;2024-02-26T07:33:31;1.97;;;1.77;;
15192;SDS011;7697;51.630;7.484;2024-02-26T07:38:34;2.60;;;1.93;;
15192;SDS011;7697;51.630;7.484;2024-02-26T07:43:35;3.27;;;2.20;;
15192;SDS011;7697;51.630;7.484;2024-02-26T07:48:37;2.60;;;2.23;;
15192;SDS011;7697;51.630;7.484;2024-02-26T07:53:40;2.57;;;1.90;;
15192;SDS011;7697;51.630;7.484;2024-02-26T07:58:42;2.30;;;1.97;;
15192;SDS011;7697;51.630;7.484;2024-02-26T08:03:44;2.50;;;2.00;;
15192;SDS011;7697;51.630;7.484;2024-02-26T08:08:47;3.13;;;2.20;;
15192;SDS011;7697;51.630;7.484;2024-02-26T08:13:49;3.17;;;1.90;;
15192;SDS011;7697;51.630;7.484;2024-02-26T08:18:50;3.90;;;2.20;;
15192;SDS011;7697;51.630;7.484;2024-02-26T08:23:54;2.43;;;1.93;;
15192;SDS011;7697;51.630;7.484;2024-02-26T08:28:55;3.43;;;1.90;;
15192;SDS011;7697;51.630;7.484;2024-02-26T08:33:58;1.90;;;1.70;;
15192;SDS011;7697;51.630;7.484;2024-02-26T08:39:02;2.17;;;1.97;;
15192;SDS011;7697;51.630;7.484;2024-02-26T08:44:04;2.50;;;2.07;;
15192;SDS011;7697;51.630;7.484;2024-02-26T08:49:05;3.30;;;2.23;;
15192;SDS011;7697;51.630;7.484;2024-02-26T08:54:09;3.20;;;2.20;;
15192;SDS011;7697;51.630;7.484;2024-02-26T08:59:10;3.60;;;2.63;;
15192;SDS011;7697;51.630;7.484;2024-02-26T09:04:12;3.93;;;2.50;;
15192;SDS011;7697;51.630;7.484;2024-02-26T09:09:15;2.33;;;2.10;;
15192;SDS011;7697;51.630;7.484;2024-02-26T09:14:17;2.63;;;2.10;;
15192;SDS011;7697;51.630;7.484;2024-02-26T09:19:19;3.27;;;2.50;;
15192;SDS011;7697;51.630;7.484;2024-02-26T09:24:22;3.53;;;2.30;;
15192;SDS011;7697;51.630;7.484;2024-02-26T09:29:23;2.63;;;2.07;;
15192;SDS011;7697;51.630;7.484;2024-02-26T09:34:26;2.37;;;2.00;;
15192;SDS011;7697;51.630;7.484;2024-02-26T09:39:30;2.30;;;1.80;;
15192;SDS011;7697;51.630;7.484;2024-02-26T09:44:31;2.33;;;1.70;;
15192;SDS011;7697;51.630;7.484;2024-02-26T09:49:38;2.23;;;1.90;;
15192;SDS011;7697;51.630;7.484;2024-02-26T09:54:41;2.40;;;2.20;;
15192;SDS011;7697;51.630;7.484;2024-02-26T09:59:48;2.63;;;2.10;;
15192;SDS011;7697;51.630;7.484;2024-02-26T10:04:52;2.67;;;2.13;;
15192;SDS011;7697;51.630;7.484;2024-02-26T10:09:57;3.57;;;2.37;;
15192;SDS011;7697;51.630;7.484;2024-02-26T10:14:59;3.10;;;2.05;;
15192;SDS011;7697;51.630;7.484;2024-02-26T10:20:11;2.30;;;1.95;;
15192;SDS011;7697;51.630;7.484;2024-02-26T10:25:16;2.47;;;2.20;;
15192;SDS011;7697;51.630;7.484;2024-02-26T10:30:18;3.07;;;2.47;;
15192;SDS011;7697;51.630;7.484;2024-02-26T10:35:21;3.20;;;2.67;;
15192;SDS011;7697;51.630;7.484;2024-02-26T10:40:24;2.80;;;2.33;;
15192;SDS011;7697;51.630;7.484;2024-02-26T10:45:26;2.92;;;2.50;;
15192;SDS011;7697;51.630;7.484;2024-02-26T10:50:28;2.58;;;2.38;;
15192;SDS011;7697;51.630;7.484;2024-02-26T10:55:31;3.08;;;2.40;;
15192;SDS011;7697;51.630;7.484;2024-02-26T11:00:35;3.88;;;2.88;;
15192;SDS011;7697;51.630;7.484;2024-02-26T11:05:39;3.17;;;2.72;;
15192;SDS011;7697;51.630;7.484;2024-02-26T11:10:43;3.88;;;2.97;;
15192;SDS011;7697;51.630;7.484;2024-02-26T11:15:48;4.75;;;3.47;;
15192;SDS011;7697;51.630;7.484;2024-02-26T11:20:51;4.10;;;3.53;;
15192;SDS011;7697;51.630;7.484;2024-02-26T11:25:58;4.65;;;3.92;;
15192;SDS011;7697;51.630;7.484;2024-02-26T11:31:01;5.35;;;4.30;;
15192;SDS011;7697;51.630;7.484;2024-02-26T11:36:07;5.32;;;4.40;;
15192;SDS011;7697;51.630;7.484;2024-02-26T11:41:11;5.63;;;4.45;;
15192;SDS011;7697;51.630;7.484;2024-02-26T11:46:24;6.57;;;4.63;;
15192;SDS011;7697;51.630;7.484;2024-02-26T11:51:26;6.88;;;5.20;;
15192;SDS011;7697;51.630;7.484;2024-02-26T11:56:30;6.03;;;4.35;;
15192;SDS011;7697;51.630;7.484;2024-02-26T12:01:41;6.28;;;4.43;;
15192;SDS011;7697;51.630;7.484;2024-02-26T12:06:50;5.30;;;4.40;;
15192;SDS011;7697;51.630;7.484;2024-02-26T12:11:55;5.10;;;4.45;;
15192;SDS011;7697;51.630;7.484;2024-02-26T12:16:57;5.50;;;3.90;;
15192;SDS011;7697;51.630;7.484;2024-02-26T12:21:59;4.60;;;3.92;;
15192;SDS011;7697;51.630;7.484;2024-02-26T12:27:03;4.80;;;3.78;;
15192;SDS011;7697;51.630;7.484;2024-02-26T12:32:05;4.85;;;3.85;;
15192;SDS011;7697;51.630;7.484;2024-02-26T12:37:07;4.85;;;3.55;;
15192;SDS011;7697;51.630;7.484;2024-02-26T12:42:11;6.30;;;4.20;;
15192;SDS011;7697;51.630;7.484;2024-02-26T12:47:13;4.25;;;3.70;;
15192;SDS011;7697;51.630;7.484;2024-02-26T12:52:16;4.57;;;3.80;;
15192;SDS011;7697;51.630;7.484;2024-02-26T12:57:20;3.97;;;3.20;;
15192;SDS011;7697;51.630;7.484;2024-02-26T13:02:22;4.28;;;3.72;;
15192;SDS011;7697;51.630;7.484;2024-02-26T13:07:24;4.30;;;3.40;;
15192;SDS011;7697;51.630;7.484;2024-02-26T13:12:27;4.40;;;3.55;;
15192;SDS011;7697;51.630;7.484;2024-02-26T13:17:31;4.30;;;3.63;;
15192;SDS011;7697;51.630;7.484;2024-02-26T13:22:33;3.97;;;3.13;;
15192;SDS011;7697;51.630;7.484;2024-02-26T13:27:36;3.75;;;3.25;;
15192;SDS011;7697;51.630;7.484;2024-02-26T13:32:38;4.10;;;3.40;;
15192;SDS011;7697;51.630;7.484;2024-02-26T13:37:41;3.92;;;3.28;;
15192;SDS011;7697;51.630;7.484;2024-02-26T13:42:44;4.85;;;3.80;;
15192;SDS011;7697;51.630;7.484;2024-02-26T13:47:48;5.30;;;4.40;;
15192;SDS011;7697;51.630;7.484;2024-02-26T13:52:50;4.25;;;3.65;;
15192;SDS011;7697;51.630;7.484;2024-02-26T13:57:55;5.20;;;3.90;;
15192;SDS011;7697;51.630;7.484;2024-02-26T14:02:58;4.65;;;3.80;;
15192;SDS011;7697;51.630;7.484;2024-02-26T14:07:59;4.95;;;3.72;;
15192;SDS011;7697;51.630;7.484;2024-02-26T14:13:02;4.18;;;3.78;;
15192;SDS011;7697;51.630;7.484;2024-02-26T14:18:05;4.40;;;3.30;;
15192;SDS011;7697;51.630;7.484;2024-02-26T14:23:08;4.90;;;3.58;;
15192;SDS011;7697;51.630;7.484;2024-02-26T14:28:11;6.05;;;3.50;;
15192;SDS011;7697;51.630;7.484;2024-02-26T14:33:13;4.38;;;3.17;;
15192;SDS011;7697;51.630;7.484;2024-02-26T14:38:15;3.17;;;2.72;;
15192;SDS011;7697;51.630;7.484;2024-02-26T14:43:18;3.97;;;2.70;;
15192;SDS011;7697;51.630;7.484;2024-02-26T14:48:20;3.53;;;2.38;;
15192;SDS011;7697;51.630;7.484;2024-02-26T14:53:21;3.03;;;2.38;;
15192;SDS011;7697;51.630;7.484;2024-02-26T14:58:25;3.10;;;2.60;;
15192;SDS011;7697;51.630;7.484;2024-02-26T15:03:27;3.70;;;2.25;;
15192;SDS011;7697;51.630;7.484;2024-02-26T15:08:28;4.55;;;2.70;;
15192;SDS011;7697;51.630;7.484;2024-02-26T15:13:32;3.00;;;2.30;;
15192;SDS011;7697;51.630;7.484;2024-02-26T15:18:35;3.60;;;2.20;;
15192;SDS011;7697;51.630;7.484;2024-02-26T15:23:39;2.70;;;2.10;;
15192;SDS011;7697;51.630;7.484;2024-02-26T15:28:42;2.20;;;1.92;;
15192;SDS011;7697;51.630;7.484;2024-02-26T15:33:44;3.00;;;2.42;;
15192;SDS011;7697;51.630;7.484;2024-02-26T15:38:45;3.78;;;2.63;;
15192;SDS011;7697;51.630;7.484;2024-02-26T15:43:48;3.40;;;2.45;;
15192;SDS011;7697;51.630;7.484;2024-02-26T15:48:50;2.97;;;2.47;;
15192;SDS011;7697;51.630;7.484;2024-02-26T15:53:52;2.67;;;2.42;;
15192;SDS011;7697;51.630;7.484;2024-02-26T15:58:55;3.20;;;2.58;;
15192;SDS011;7697;51.630;7.484;2024-02-26T16:03:57;2.53;;;2.30;;
15192;SDS011;7697;51.630;7.484;2024-02-26T16:08:59;2.60;;;2.40;;
15192;SDS011;7697;51.630;7.484;2024-02-26T16:19:25;2.80;;;2.00;;
15192;SDS011;7697;51.630;7.484;2024-02-26T16:24:27;3.28;;;2.90;;
15192;SDS011;7697;51.630;7.484;2024-02-26T16:29:30;3.45;;;2.42;;
15192;SDS011;7697;51.630;7.484;2024-02-26T16:34:35;2.83;;;2.45;;
15192;SDS011;7697;51.630;7.484;2024-02-26T16:39:37;2.10;;;1.90;;
15192;SDS011;7697;51.630;7.484;2024-02-26T16:44:40;3.22;;;2.50;;
15192;SDS011;7697;51.630;7.484;2024-02-26T16:49:42;4.10;;;2.40;;
15192;SDS011;7697;51.630;7.484;2024-02-26T16:54:44;3.28;;;2.20;;
15192;SDS011;7697;51.630;7.484;2024-02-26T16:59:48;4.22;;;2.85;;
15192;SDS011;7697;51.630;7.484;2024-02-26T17:04:50;3.63;;;2.85;;
15192;SDS011;7697;51.630;7.484;2024-02-26T17:09:52;2.15;;;1.95;;
15192;SDS011;7697;51.630;7.484;2024-02-26T17:14:56;2.42;;;1.90;;
15192;SDS011;7697;51.630;7.484;2024-02-26T17:19:58;3.20;;;2.38;;
15192;SDS011;7697;51.630;7.484;2024-02-26T17:25:00;3.08;;;1.70;;
15192;SDS011;7697;51.630;7.484;2024-02-26T17:30:03;2.28;;;2.03;;
15192;SDS011;7697;51.630;7.484;2024-02-26T17:35:06;2.30;;;1.90;;
15192;SDS011;7697;51.630;7.484;2024-02-26T17:40:14;3.00;;;2.50;;
15192;SDS011;7697;51.630;7.484;2024-02-26T17:45:17;2.70;;;2.13;;
15192;SDS011;7697;51.630;7.484;2024-02-26T17:50:21;2.10;;;1.90;;
15192;SDS011;7697;51.630;7.484;2024-02-26T17:55:24;4.50;;;3.30;;
15192;SDS011;7697;51.630;7.484;2024-02-26T18:00:27;2.70;;;2.45;;
15192;SDS011;7697;51.630;7.484;2024-02-26T18:05:29;3.78;;;2.78;;
15192;SDS011;7697;51.630;7.484;2024-02-26T18:10:31;4.65;;;3.50;;
15192;SDS011;7697;51.630;7.484;2024-02-26T18:15:34;8.45;;;5.35;;
15192;SDS011;7697;51.630;7.484;2024-02-26T18:20:36;7.93;;;5.75;;
15192;SDS011;7697;51.630;7.484;2024-02-26T18:25:39;4.40;;;3.60;;
15192;SDS011;7697;51.630;7.484;2024-02-26T18:30:42;5.68;;;4.97;;
15192;SDS011;7697;51.630;7.484;2024-02-26T18:35:46;6.10;;;5.10;;
15192;SDS011;7697;51.630;7.484;2024-02-26T18:40:48;7.10;;;5.32;;
15192;SDS011;7697;51.630;7.484;2024-02-26T18:45:51;6.45;;;5.53;;
15192;SDS011;7697;51.630;7.484;2024-02-26T18:50:57;5.35;;;4.85;;
15192;SDS011;7697;51.630;7.484;2024-02-26T18:55:59;7.00;;;5.97;;
15192;SDS011;7697;51.630;7.484;2024-02-26T19:01:03;6.93;;;5.97;;
15192;SDS011;7697;51.630;7.484;2024-02-26T19:06:09;6.88;;;5.90;;
15192;SDS011;7697;51.630;7.484;2024-02-26T19:11:11;7.00;;;5.88;;
15192;SDS011;7697;51.630;7.484;2024-02-26T19:16:14;7.47;;;6.38;;
15192;SDS011;7697;51.630;7.484;2024-02-26T19:21:16;7.13;;;6.13;;
15192;SDS011;7697;51.630;7.484;2024-02-26T19:26:19;7.43;;;6.10;;
15192;SDS011;7697;51.630;7.484;2024-02-26T19:31:22;7.93;;;6.45;;
15192;SDS011;7697;51.630;7.484;2024-02-26T19:36:27;7.35;;;6.47;;
15192;SDS011;7697;51.630;7.484;2024-02-26T19:41:29;8.18;;;6.50;;
15192;SDS011;7697;51.630;7.484;2024-02-26T19:46:32;8.32;;;7.10;;
15192;SDS011;7697;51.630;7.484;2024-02-26T19:51:34;9.52;;;7.80;;
15192;SDS011;7697;51.630;7.484;2024-02-26T19:56:37;8.48;;;7.22;;
15192;SDS011;7697;51.630;7.484;2024-02-26T20:01:40;11.52;;;7.75;;
15192;SDS011;7697;51.630;7.484;2024-02-26T20:06:42;10.40;;;8.52;;
15192;SDS011;7697;51.630;7.484;2024-02-26T20:11:44;8.73;;;7.80;;
15192;SDS011;7697;51.630;7.484;2024-02-26T20:16:47;9.85;;;8.13;;
15192;SDS011;7697;51.630;7.484;2024-02-26T20:21:49;11.63;;;8.60;;
15192;SDS011;7697;51.630;7.484;2024-02-26T20:26:52;7.93;;;7.00;;
15192;SDS011;7697;51.630;7.484;2024-02-26T20:31:55;9.18;;;7.63;;
15192;SDS011;7697;51.630;7.484;2024-02-26T20:36:58;9.48;;;8.48;;
15192;SDS011;7697;51.630;7.484;2024-02-26T20:42:00;9.00;;;7.82;;
15192;SDS011;7697;51.630;7.484;2024-02-26T20:47:03;9.50;;;8.50;;
15192;SDS011;7697;51.630;7.484;2024-02-26T20:52:05;10.05;;;8.00;;
15192;SDS011;7697;51.630;7.484;2024-02-26T20:57:07;9.80;;;8.30;;
15192;SDS011;7697;51.630;7.484;2024-02-26T21:02:11;10.27;;;9.17;;
15192;SDS011;7697;51.630;7.484;2024-02-26T21:07:13;11.33;;;9.70;;
15192;SDS011;7697;51.630;7.484;2024-02-26T21:12:16;10.75;;;9.23;;
15192;SDS011;7697;51.630;7.484;2024-02-26T21:17:19;12.52;;;10.65;;
15192;SDS011;7697;51.630;7.484;2024-02-26T21:22:21;13.15;;;11.05;;
15192;SDS011;7697;51.630;7.484;2024-02-26T21:27:23;13.05;;;11.43;;
15192;SDS011;7697;51.630;7.484;2024-02-26T21:32:26;14.48;;;12.20;;
15192;SDS011;7697;51.630;7.484;2024-02-26T21:37:28;14.13;;;11.93;;
15192;SDS011;7697;51.630;7.484;2024-02-26T21:42:30;17.65;;;13.98;;
15192;SDS011;7697;51.630;7.484;2024-02-26T21:47:33;17.97;;;14.20;;
15192;SDS011;7697;51.630;7.484;2024-02-26T21:52:35;16.20;;;13.73;;
15192;SDS011;7697;51.630;7.484;2024-02-26T21:57:37;17.17;;;14.67;;
15192;SDS011;7697;51.630;7.484;2024-02-26T22:02:40;18.50;;;15.27;;
15192;SDS011;7697;51.630;7.484;2024-02-26T22:07:42;17.60;;;15.57;;
15192;SDS011;7697;51.630;7.484;2024-02-26T22:12:44;19.80;;;15.97;;
15192;SDS011;7697;51.630;7.484;2024-02-26T22:17:48;19.20;;;16.47;;
15192;SDS011;7697;51.630;7.484;2024-02-26T22:22:49;19.03;;;16.43;;
15192;SDS011;7697;51.630;7.484;2024-02-26T22:27:51;19.20;;;15.45;;
15192;SDS011;7697;51.630;7.484;2024-02-26T22:32:55;19.98;;;17.05;;
15192;SDS011;7697;51.630;7.484;2024-02-26T22:37:57;20.33;;;16.90;;
15192;SDS011;7697;51.630;7.484;2024-02-26T22:42:58;19.60;;;16.75;;
15192;SDS011;7697;51.630;7.484;2024-02-26T22:48:02;18.93;;;16.33;;
15192;SDS011;7697;51.630;7.484;2024-02-26T22:53:04;18.50;;;16.50;;
15192;SDS011;7697;51.630;7.484;2024-02-26T22:58:06;19.93;;;16.53;;
15192;SDS011;7697;51.630;7.484;2024-02-26T23:03:09;19.20;;;16.80;;
15192;SDS011;7697;51.630;7.484;2024-02-26T23:08:11;19.10;;;16.63;;
15192;SDS011;7697;51.630;7.484;2024-02-26T23:13:13;19.30;;;16.48;;
15192;SDS011;7697;51.630;7.484;2024-02-26T23:18:17;20.20;;;16.87;;
15192;SDS011;7697;51.630;7.484;2024-02-26T23:23:19;20.37;;;17.17;;
15192;SDS011;7697;51.630;7.484;2024-02-26T23:28:21;18.77;;;16.30;;
15192;SDS011;7697;51.630;7.484;2024-02-26T23:33:24;21.70;;;16.70;;
15192;SDS011;7697;51.630;7.484;2024-02-26T23:38:25;18.63;;;16.23;;
15192;SDS011;7697;51.630;7.484;2024-02-26T23:43:27;20.38;;;16.65;;
15192;SDS011;7697;51.630;7.484;2024-02-26T23:48:30;20.03;;;15.93;;
15192;SDS011;7697;51.630;7.484;2024-02-26T23:53:32;18.87;;;16.17;;
15192;SDS011;7697;51.630;7.484;2024-02-26T23:58:34;18.00;;;14.70;;
